Terminal Aerodrome Forecast
Issued by NWS Denver/Boulder, CO

Home | Current Version | Previous Version | Text Only | Print | Product List | Glossary On
Versions: 1 2 3 4 5 6 7 8 9 10 11 12 13 14 15 16 17 18 19 20 21 22 23 24 25 26 27 28 29 30 31 32 33 34
000
FTUS45 KBOU 200900 AAA
TAFDEN
TAF AMD
KDEN 200900Z 2009/2112 24008KT P6SM FEW220
     FM201900 22012KT P6SM FEW220
     FM202300 27010KT P6SM SCT220
     FM210200 24009KT P6SM BKN220
     FM210600 27009KT P6SM BKN220
     FM210900 31015KT P6SM FEW120 SCT220=

USA.gov is the U.S. government's official web portal to all federal, state and local government web resources and services.